createdAt,value
2018-05-02T00:01:00.568Z,73.78
2018-05-02T00:03:26.416Z,73.42
2018-05-02T00:05:52.289Z,74.13
2018-05-02T00:08:18.225Z,74.20
2018-05-02T00:10:44.085Z,75.30
2018-05-02T00:13:09.964Z,75.26
2018-05-02T00:15:35.824Z,74.83
2018-05-02T00:18:01.791Z,74.60
2018-05-02T00:20:27.599Z,75.13
2018-05-02T00:22:53.503Z,75.05
2018-05-02T00:25:19.340Z,75.47
2018-05-02T00:27:45.227Z,75.05
2018-05-02T00:30:11.092Z,75.12
2018-05-02T00:32:36.968Z,75.80
2018-05-02T00:35:02.867Z,77.28
2018-05-02T00:37:28.740Z,75.66
2018-05-02T00:39:54.611Z,75.51
2018-05-02T00:42:20.475Z,74.36
2018-05-02T00:44:46.330Z,74.87
2018-05-02T00:47:12.176Z,75.52
2018-05-02T00:49:38.046Z,75.99
2018-05-02T00:52:03.892Z,75.73
2018-05-02T00:54:29.780Z,76.36
2018-05-02T00:56:55.667Z,74.95
2018-05-02T00:59:21.530Z,74.48
2018-05-02T01:01:47.384Z,74.01
2018-05-02T01:04:13.285Z,74.27
2018-05-02T01:06:39.174Z,75.20
2018-05-02T01:09:05.088Z,76.70
2018-05-02T01:11:30.972Z,77.12
2018-05-02T01:13:56.821Z,77.46
2018-05-02T01:16:22.692Z,75.70
2018-05-02T01:18:48.564Z,75.78
2018-05-02T01:21:14.437Z,74.77
2018-05-02T01:23:40.330Z,75.48
2018-05-02T01:26:06.177Z,75.02
2018-05-02T01:28:32.013Z,74.70
2018-05-02T01:30:57.857Z,75.12
2018-05-02T01:33:23.715Z,75.04
2018-05-02T01:35:49.589Z,74.23
2018-05-02T01:38:15.453Z,74.74
2018-05-02T01:40:41.318Z,75.00
2018-05-02T01:43:07.153Z,75.54
2018-05-02T01:45:33.032Z,75.30
2018-05-02T01:47:58.872Z,74.36
2018-05-02T01:50:24.704Z,73.36
2018-05-02T01:52:50.544Z,73.24
2018-05-02T01:55:16.348Z,76.08
2018-05-02T01:57:42.229Z,76.91
2018-05-02T02:00:08.057Z,77.94
2018-05-02T02:02:33.902Z,77.24
2018-05-02T02:04:59.759Z,77.92
2018-05-02T02:07:25.640Z,76.83
2018-05-02T02:09:51.497Z,75.73
2018-05-02T02:12:17.346Z,75.30
2018-05-02T02:14:43.233Z,74.95
2018-05-02T02:17:09.081Z,75.21
2018-05-02T02:19:34.909Z,74.88
2018-05-02T02:22:00.764Z,75.16
2018-05-02T02:24:26.639Z,74.59
2018-05-02T02:26:52.493Z,74.97
2018-05-02T02:29:18.373Z,74.91
2018-05-02T02:31:44.207Z,75.52
2018-05-02T02:34:10.082Z,75.72
2018-05-02T02:36:35.952Z,76.16
2018-05-02T02:39:01.848Z,76.31
2018-05-02T02:41:27.710Z,76.04
2018-05-02T02:43:53.559Z,75.48
2018-05-02T02:46:19.417Z,76.15
2018-05-02T02:48:45.268Z,76.58
2018-05-02T02:51:11.126Z,76.15
2018-05-02T02:53:36.984Z,76.46
2018-05-02T02:56:02.851Z,75.55
2018-05-02T02:58:28.713Z,75.96
2018-05-02T03:00:54.613Z,75.42
2018-05-02T03:03:20.497Z,75.47
2018-05-02T03:05:46.369Z,74.55
2018-05-02T03:08:12.243Z,74.69
2018-05-02T03:10:38.112Z,75.53
2018-05-02T03:13:03.988Z,77.72
2018-05-02T03:15:29.848Z,77.80
2018-05-02T03:17:55.699Z,77.42
2018-05-02T03:20:21.542Z,77.10
2018-05-02T03:22:47.427Z,76.90
2018-05-02T03:25:13.294Z,77.52
2018-05-02T03:27:39.177Z,78.05
2018-05-02T03:30:05.014Z,78.06
2018-05-02T03:32:30.884Z,77.67
2018-05-02T03:34:56.754Z,78.00
2018-05-02T03:37:22.577Z,77.25
2018-05-02T03:39:48.410Z,75.55
2018-05-02T03:42:14.269Z,74.96
2018-05-02T03:44:40.168Z,75.95
2018-05-02T03:47:06.048Z,77.07
2018-05-02T03:49:31.895Z,76.81
2018-05-02T03:51:57.761Z,76.38
2018-05-02T03:54:23.645Z,75.68
2018-05-02T03:56:49.472Z,76.22
2018-05-02T03:59:15.373Z,75.13
2018-05-02T04:01:53.525Z,78.02
2018-05-02T04:04:31.892Z,77.64
2018-05-02T04:07:14.554Z,76.79
2018-05-02T04:09:40.461Z,78.38
2018-05-02T04:12:06.381Z,78.17
2018-05-02T04:14:32.251Z,77.93
2018-05-02T04:16:58.129Z,76.67
2018-05-02T04:19:23.998Z,76.27
2018-05-02T04:21:49.865Z,75.87
2018-05-02T04:24:15.705Z,75.86
2018-05-02T04:26:41.572Z,76.30
2018-05-02T04:29:07.454Z,77.05
2018-05-02T04:31:33.320Z,77.83
2018-05-02T04:33:59.180Z,77.56
2018-05-02T04:36:25.064Z,77.37
2018-05-02T04:38:50.932Z,76.92
2018-05-02T04:41:16.868Z,76.43
2018-05-02T04:43:42.758Z,76.69
2018-05-02T04:46:08.624Z,77.25
2018-05-02T04:48:34.490Z,76.59
2018-05-02T04:51:00.339Z,76.36
2018-05-02T04:53:26.284Z,75.84
2018-05-02T04:55:52.141Z,76.09
2018-05-02T04:58:18.017Z,75.86
2018-05-02T05:00:43.858Z,75.15
2018-05-02T05:03:09.724Z,74.18
2018-05-02T05:05:35.601Z,74.00
2018-05-02T05:08:01.656Z,72.62
2018-05-02T05:10:27.521Z,72.53
2018-05-02T05:12:53.745Z,72.26
2018-05-02T05:15:19.616Z,71.97
2018-05-02T05:17:45.466Z,71.48
2018-05-02T05:20:11.320Z,70.60
2018-05-02T05:22:37.184Z,70.20
2018-05-02T05:25:03.077Z,69.36
2018-05-02T05:27:28.928Z,69.65
2018-05-02T05:29:54.793Z,69.49
2018-05-02T05:32:20.684Z,68.31
2018-05-02T05:34:46.526Z,67.48
2018-05-02T05:37:12.387Z,67.81
2018-05-02T05:39:38.252Z,67.96
2018-05-02T05:42:04.100Z,68.79
2018-05-02T05:44:29.977Z,66.41
2018-05-02T05:46:55.883Z,66.86
2018-05-02T05:49:21.724Z,67.40
2018-05-02T05:51:47.566Z,65.86
2018-05-02T05:54:13.576Z,66.46
2018-05-02T05:56:39.376Z,65.08
2018-05-02T05:59:05.218Z,65.86
2018-05-02T06:01:31.172Z,66.69
2018-05-02T06:03:57.032Z,66.00
2018-05-02T06:06:23.347Z,63.19
2018-05-02T06:08:49.225Z,63.57
2018-05-02T06:11:15.120Z,63.42
2018-05-02T06:13:41.013Z,62.88
2018-05-02T06:16:06.957Z,62.74
2018-05-02T06:18:32.817Z,62.38
2018-05-02T06:20:58.681Z,63.34
2018-05-02T06:23:24.530Z,62.50
2018-05-02T06:25:51.206Z,63.11
2018-05-02T06:28:17.091Z,62.01
2018-05-02T06:30:42.953Z,61.02
2018-05-02T06:33:08.841Z,61.49
2018-05-02T06:35:34.677Z,60.36
2018-05-02T06:38:00.573Z,61.09
2018-05-02T06:40:26.384Z,60.08
2018-05-02T06:42:52.248Z,59.72
2018-05-02T06:45:18.101Z,60.07
2018-05-02T06:47:44.024Z,58.31
2018-05-02T06:50:09.906Z,57.88
2018-05-02T06:52:35.756Z,57.68
2018-05-02T06:55:01.601Z,58.89
2018-05-02T06:57:27.444Z,58.44
2018-05-02T06:59:53.325Z,56.79
2018-05-02T07:02:19.193Z,56.67
2018-05-02T07:04:45.080Z,56.90
2018-05-02T07:07:11.030Z,56.86
2018-05-02T07:09:36.827Z,56.23
2018-05-02T07:12:02.674Z,56.51
2018-05-02T07:14:28.513Z,56.12
2018-05-02T07:16:54.376Z,55.66
2018-05-02T07:19:20.239Z,56.98
2018-05-02T07:21:46.100Z,54.81
2018-05-02T07:24:11.915Z,56.10
2018-05-02T07:26:37.821Z,55.84
2018-05-02T07:29:03.678Z,56.28
2018-05-02T07:31:29.521Z,55.06
2018-05-02T07:33:55.384Z,56.09
2018-05-02T07:36:21.222Z,54.87
2018-05-02T07:38:47.064Z,56.20
2018-05-02T07:41:12.942Z,55.15
2018-05-02T07:43:38.821Z,55.13
2018-05-02T07:46:04.729Z,54.68
2018-05-02T07:48:30.607Z,55.02
2018-05-02T07:50:56.486Z,54.66
2018-05-02T07:53:22.311Z,55.30
2018-05-02T07:55:48.157Z,55.24
2018-05-02T07:58:14.039Z,55.74
2018-05-02T08:00:39.897Z,55.21
2018-05-02T08:03:05.803Z,55.47
2018-05-02T08:05:31.648Z,54.91
2018-05-02T08:07:57.848Z,55.68
2018-05-02T08:10:23.720Z,55.94
2018-05-02T08:12:49.601Z,55.37
2018-05-02T08:15:15.477Z,56.64
2018-05-02T08:17:41.363Z,55.33
2018-05-02T08:20:07.261Z,56.64
2018-05-02T08:22:33.112Z,55.37
2018-05-02T08:24:58.925Z,55.00
2018-05-02T08:27:25.096Z,55.48
2018-05-02T08:29:50.968Z,55.30
2018-05-02T08:32:16.834Z,55.05
2018-05-02T08:34:42.705Z,55.42
2018-05-02T08:37:08.521Z,55.70
2018-05-02T08:39:34.361Z,55.20
2018-05-02T08:42:00.222Z,55.02
2018-05-02T08:44:26.085Z,53.99
2018-05-02T08:46:51.932Z,53.46
2018-05-02T08:49:17.808Z,52.36
2018-05-02T08:51:43.684Z,53.15
2018-05-02T08:54:09.588Z,51.71
2018-05-02T08:56:35.524Z,51.10
2018-05-02T08:59:01.361Z,51.09
2018-05-02T09:01:27.337Z,50.37
2018-05-02T09:03:53.199Z,50.56
2018-05-02T09:06:19.068Z,49.32
2018-05-02T09:08:44.913Z,49.33
2018-05-02T09:11:10.760Z,48.87
2018-05-02T09:13:36.598Z,49.02
2018-05-02T09:16:02.456Z,50.51
2018-05-02T09:18:28.295Z,48.33
2018-05-02T09:20:54.164Z,49.02
2018-05-02T09:23:20.005Z,47.75
2018-05-02T09:25:45.901Z,47.83
2018-05-02T09:28:11.791Z,48.21
2018-05-02T09:30:37.613Z,47.90
2018-05-02T09:33:03.442Z,47.70
2018-05-02T09:35:29.313Z,47.93
2018-05-02T09:37:55.168Z,48.94
2018-05-02T09:40:21.025Z,47.82
2018-05-02T09:42:46.881Z,47.87
2018-05-02T09:45:12.745Z,46.61
2018-05-02T09:47:38.600Z,47.63
2018-05-02T09:50:04.582Z,46.21
2018-05-02T09:52:30.414Z,47.39
2018-05-02T09:54:56.260Z,47.05
2018-05-02T09:57:22.085Z,47.11
2018-05-02T09:59:47.921Z,48.98
2018-05-02T10:02:13.760Z,47.98
2018-05-02T10:04:39.619Z,46.87
2018-05-02T10:07:05.476Z,45.51
2018-05-02T10:09:31.346Z,46.36
2018-05-02T10:11:57.215Z,46.68
2018-05-02T10:14:23.101Z,45.76
2018-05-02T10:16:48.986Z,45.71
2018-05-02T10:19:14.852Z,45.72
2018-05-02T10:21:40.740Z,46.62
2018-05-02T10:24:06.589Z,46.02
2018-05-02T10:26:32.481Z,46.28
2018-05-02T10:28:58.340Z,45.59
2018-05-02T10:31:24.211Z,46.12
2018-05-02T10:33:50.092Z,46.34
2018-05-02T10:36:15.949Z,46.07
2018-05-02T10:38:41.831Z,45.47
2018-05-02T10:41:07.733Z,45.79
2018-05-02T10:43:33.599Z,45.47
2018-05-02T10:45:59.525Z,45.62
2018-05-02T10:48:25.418Z,45.59
2018-05-02T10:50:51.272Z,46.26
2018-05-02T10:53:17.153Z,45.36
2018-05-02T10:55:43.005Z,43.99
2018-05-02T10:58:08.869Z,44.32
2018-05-02T11:00:34.750Z,43.69
2018-05-02T11:03:00.688Z,43.11
2018-05-02T11:05:26.564Z,43.04
2018-05-02T11:07:52.457Z,41.62
2018-05-02T11:10:18.324Z,41.60
2018-05-02T11:12:44.181Z,43.62
2018-05-02T11:15:10.053Z,44.64
2018-05-02T11:17:35.944Z,45.68
2018-05-02T11:20:01.812Z,44.73
2018-05-02T11:22:27.783Z,43.85
2018-05-02T11:24:53.637Z,44.68
2018-05-02T11:27:19.462Z,43.60
2018-05-02T11:29:45.300Z,44.25
2018-05-02T11:32:11.174Z,43.17
2018-05-02T11:34:37.066Z,43.70
2018-05-02T11:37:02.915Z,43.18
2018-05-02T11:39:28.793Z,42.45
2018-05-02T11:41:54.668Z,42.71
2018-05-02T11:44:20.513Z,43.15
2018-05-02T11:46:46.367Z,44.22
2018-05-02T11:49:12.229Z,43.39
2018-05-02T11:51:38.096Z,44.07
2018-05-02T11:54:03.955Z,44.33
2018-05-02T11:56:29.816Z,43.76
2018-05-02T11:58:55.685Z,42.67
2018-05-02T12:01:21.656Z,42.62
2018-05-02T12:03:47.516Z,41.31
2018-05-02T12:06:13.372Z,41.58
2018-05-02T12:08:40.102Z,41.24
2018-05-02T12:11:05.988Z,40.93
2018-05-02T12:13:31.860Z,41.97
2018-05-02T12:15:57.788Z,43.32
2018-05-02T12:18:23.636Z,42.42
2018-05-02T12:20:49.461Z,43.86
2018-05-02T12:23:15.313Z,42.27
2018-05-02T12:25:41.184Z,41.83
2018-05-02T12:28:07.042Z,42.48
2018-05-02T12:30:32.899Z,42.50
2018-05-02T12:32:58.756Z,42.21
2018-05-02T12:35:24.628Z,42.61
2018-05-02T12:37:50.438Z,41.76
2018-05-02T12:40:16.297Z,42.22
2018-05-02T12:42:42.194Z,42.37
2018-05-02T12:45:08.029Z,41.44
2018-05-02T12:47:33.891Z,39.89
2018-05-02T12:49:59.721Z,37.71
2018-05-02T12:52:25.605Z,36.53
2018-05-02T12:54:51.482Z,35.29
2018-05-02T12:57:17.352Z,36.41
2018-05-02T12:59:43.235Z,36.72
2018-05-02T13:02:09.109Z,39.07
2018-05-02T13:04:34.985Z,41.04
2018-05-02T13:07:00.824Z,40.34
2018-05-02T13:09:26.671Z,41.13
2018-05-02T13:11:52.517Z,41.10
2018-05-02T13:14:18.365Z,42.11
2018-05-02T13:16:44.221Z,41.20
2018-05-02T13:19:10.073Z,40.48
2018-05-02T13:21:35.921Z,41.37
2018-05-02T13:24:01.757Z,41.93
2018-05-02T13:26:27.644Z,43.44
2018-05-02T13:28:53.492Z,41.62
2018-05-02T13:31:19.365Z,41.81
2018-05-02T13:33:45.212Z,40.95
2018-05-02T13:36:11.036Z,42.05
2018-05-02T13:38:36.888Z,41.09
2018-05-02T13:41:02.773Z,40.15
2018-05-02T13:43:28.644Z,38.86
2018-05-02T13:45:54.480Z,38.54
2018-05-02T13:48:20.325Z,39.40
2018-05-02T13:50:46.192Z,38.32
2018-05-02T13:53:12.064Z,38.24
2018-05-02T13:55:37.937Z,37.83
2018-05-02T13:58:03.825Z,36.87
2018-05-02T14:00:30.649Z,37.37
2018-05-02T14:02:56.524Z,38.25
2018-05-02T14:05:22.382Z,38.92
2018-05-02T14:07:48.252Z,37.41
2018-05-02T14:10:14.121Z,38.91
2018-05-02T14:12:40.008Z,36.66
2018-05-02T14:15:05.948Z,35.83
2018-05-02T14:17:31.867Z,37.67
2018-05-02T14:19:57.681Z,37.27
2018-05-02T14:22:23.556Z,36.60
2018-05-02T14:24:49.487Z,37.70
2018-05-02T14:27:15.316Z,36.50
2018-05-02T14:29:41.182Z,35.78
2018-05-02T14:32:07.033Z,36.51
2018-05-02T14:34:32.901Z,38.35
2018-05-02T14:36:58.757Z,37.85
2018-05-02T14:39:24.695Z,36.62
2018-05-02T14:41:50.568Z,35.87
2018-05-02T14:44:16.475Z,34.33
2018-05-02T14:46:42.337Z,35.32
2018-05-02T14:49:08.237Z,35.74
2018-05-02T14:51:34.072Z,34.93
2018-05-02T14:53:59.889Z,35.58
2018-05-02T14:56:25.733Z,35.47
2018-05-02T14:58:51.574Z,34.83
2018-05-02T15:01:17.458Z,36.13
2018-05-02T15:03:43.284Z,37.55
2018-05-02T15:06:09.590Z,37.44
2018-05-02T15:08:35.698Z,37.96
2018-05-02T15:11:01.798Z,38.66
2018-05-02T15:13:27.784Z,37.42
2018-05-02T15:15:53.655Z,37.66
2018-05-02T15:18:19.525Z,37.73
2018-05-02T15:20:45.470Z,38.71
2018-05-02T15:23:11.325Z,38.60
2018-05-02T15:25:37.192Z,40.55
2018-05-02T15:28:03.089Z,40.38
2018-05-02T15:30:28.944Z,41.14
2018-05-02T15:32:54.809Z,41.91
2018-05-02T15:35:20.649Z,40.16
2018-05-02T15:37:46.521Z,40.80
2018-05-02T15:40:12.396Z,41.04
2018-05-02T15:42:38.277Z,40.83
2018-05-02T15:45:04.176Z,41.15
2018-05-02T15:47:30.043Z,40.97
2018-05-02T15:49:55.894Z,41.56
2018-05-02T15:52:21.797Z,42.45
2018-05-02T15:54:47.664Z,42.79
2018-05-02T15:57:13.585Z,43.62
2018-05-02T15:59:39.453Z,43.51
2018-05-02T16:02:05.360Z,42.51
2018-05-02T16:04:31.234Z,43.54
2018-05-02T16:06:57.099Z,43.98
2018-05-02T16:09:22.964Z,44.25
2018-05-02T16:11:48.816Z,43.76
2018-05-02T16:14:14.687Z,45.55
2018-05-02T16:16:40.556Z,44.66
2018-05-02T16:19:06.467Z,44.24
2018-05-02T16:24:27.185Z,45.04
2018-05-02T16:26:53.060Z,46.21
2018-05-02T16:29:18.954Z,45.24
2018-05-02T16:31:44.818Z,44.88
2018-05-02T16:34:10.765Z,45.97
2018-05-02T16:36:36.629Z,45.54
2018-05-02T16:39:02.559Z,45.49
2018-05-02T16:41:28.466Z,45.91
2018-05-02T16:43:54.340Z,46.21
2018-05-02T16:46:20.209Z,46.05
2018-05-02T16:48:46.072Z,47.25
2018-05-02T16:51:11.946Z,47.12
2018-05-02T16:53:37.805Z,47.00
2018-05-02T16:56:03.720Z,46.75
2018-05-02T16:58:29.664Z,47.81
2018-05-02T17:00:55.627Z,48.42
2018-05-02T17:03:21.491Z,48.26
2018-05-02T17:05:47.396Z,48.84
2018-05-02T17:08:13.269Z,48.37
2018-05-02T17:10:39.139Z,48.55
2018-05-02T17:13:05.013Z,49.44
2018-05-02T17:15:30.861Z,49.12
2018-05-02T17:17:56.744Z,49.33
2018-05-02T17:20:24.678Z,49.45
2018-05-02T17:22:50.779Z,50.42
2018-05-02T17:25:17.392Z,51.03
2018-05-02T17:27:43.319Z,51.28
2018-05-02T17:30:09.254Z,51.47
2018-05-02T17:32:35.116Z,51.85
2018-05-02T17:35:01.005Z,51.91
2018-05-02T17:37:26.872Z,51.67
2018-05-02T17:39:52.745Z,51.61
2018-05-02T17:42:18.629Z,51.36
2018-05-02T17:44:44.541Z,51.87
2018-05-02T17:47:10.378Z,52.28
2018-05-02T17:49:36.276Z,52.58
2018-05-02T17:52:02.138Z,53.02
2018-05-02T17:54:28.008Z,52.31
2018-05-02T17:56:53.870Z,52.64
2018-05-02T17:59:19.783Z,52.67
2018-05-02T18:01:45.668Z,52.77
2018-05-02T18:04:11.569Z,53.13
2018-05-02T18:06:37.428Z,54.00
2018-05-02T18:09:03.334Z,54.96
2018-05-02T18:11:29.176Z,55.09
2018-05-02T18:14:02.101Z,55.06
2018-05-02T18:16:27.978Z,55.95
2018-05-02T18:18:53.852Z,56.40
2018-05-02T18:21:19.769Z,57.02
2018-05-02T18:23:45.633Z,57.21
2018-05-02T18:26:11.479Z,57.76
2018-05-02T18:28:37.380Z,57.91
2018-05-02T18:31:03.281Z,58.25
2018-05-02T18:33:29.113Z,58.45
2018-05-02T18:35:54.968Z,59.07
2018-05-02T18:38:20.848Z,59.32
2018-05-02T18:40:46.700Z,59.47
2018-05-02T18:43:12.541Z,60.14
2018-05-02T18:45:38.408Z,60.27
2018-05-02T18:48:10.077Z,60.47
2018-05-02T18:50:35.972Z,60.74
2018-05-02T18:53:01.865Z,61.24
2018-05-02T18:55:27.714Z,61.30
2018-05-02T18:57:53.646Z,61.71
2018-05-02T19:00:19.832Z,62.25
2018-05-02T19:02:47.789Z,62.33
2018-05-02T19:05:15.448Z,62.73
2018-05-02T19:07:42.712Z,62.85
2018-05-02T19:10:10.042Z,63.29
2018-05-02T19:12:37.378Z,63.61
2018-05-02T19:15:05.383Z,63.62
2018-05-02T19:17:34.446Z,63.81
2018-05-02T19:20:06.673Z,64.23
2018-05-02T19:22:32.542Z,65.02
2018-05-02T19:25:04.542Z,65.04
2018-05-02T19:27:30.421Z,64.97
2018-05-02T19:29:56.341Z,65.09
2018-05-02T19:32:28.262Z,65.41
2018-05-02T19:34:54.226Z,66.07
2018-05-02T19:37:20.133Z,66.16
2018-05-02T19:39:52.186Z,66.08
2018-05-02T19:42:24.385Z,66.52
2018-05-02T19:44:50.286Z,66.52
2018-05-02T19:47:16.178Z,66.78
2018-05-02T19:49:42.072Z,66.93
2018-05-02T19:55:16.788Z,67.57
2018-05-02T19:57:42.622Z,67.24
2018-05-02T20:00:14.596Z,67.62
2018-05-02T20:02:46.457Z,67.94
2018-05-02T20:05:12.351Z,68.05
2018-05-02T20:07:41.089Z,68.26
2018-05-02T20:10:13.092Z,68.37
2018-05-02T20:12:45.077Z,68.78
2018-05-02T20:15:10.967Z,68.52
2018-05-02T20:17:36.928Z,68.76
2018-05-02T20:20:02.879Z,68.39
2018-05-02T20:22:28.724Z,68.28
2018-05-02T20:24:54.573Z,68.28
2018-05-02T20:27:20.431Z,68.57
2018-05-02T20:29:46.297Z,68.10
2018-05-02T20:32:12.144Z,68.50
2018-05-02T20:34:38.012Z,68.25
2018-05-02T20:37:03.944Z,68.26
2018-05-02T20:39:29.794Z,69.33
2018-05-02T20:41:55.696Z,68.82
2018-05-02T20:44:21.532Z,68.90
2018-05-02T20:46:47.366Z,69.16
2018-05-02T20:49:13.271Z,69.14
2018-05-02T20:51:39.144Z,69.82
2018-05-02T20:54:04.980Z,69.79
2018-05-02T20:56:30.826Z,70.05
2018-05-02T20:58:56.688Z,69.41
2018-05-02T21:01:22.565Z,69.80
2018-05-02T21:03:48.425Z,70.22
2018-05-02T21:06:14.249Z,69.69
2018-05-02T21:08:40.088Z,70.07
2018-05-02T21:11:05.937Z,70.15
2018-05-02T21:13:31.768Z,69.97
2018-05-02T21:15:57.635Z,69.86
2018-05-02T21:18:23.489Z,69.43
2018-05-02T21:20:49.316Z,69.31
2018-05-02T21:23:15.186Z,69.84
2018-05-02T21:25:41.045Z,69.94
2018-05-02T21:28:06.929Z,70.15
2018-05-02T21:30:32.791Z,70.55
2018-05-02T21:32:58.632Z,69.18
2018-05-02T21:35:24.468Z,69.61
2018-05-02T21:37:50.292Z,68.59
2018-05-02T21:40:16.144Z,69.73
2018-05-02T21:42:42.005Z,69.47
2018-05-02T21:45:07.858Z,70.15
2018-05-02T21:47:33.736Z,70.98
2018-05-02T21:49:59.592Z,70.89
2018-05-02T21:52:25.452Z,71.40
2018-05-02T21:54:51.301Z,72.37
2018-05-02T21:57:17.145Z,71.85
2018-05-02T21:59:43.068Z,71.98
2018-05-02T22:02:08.886Z,70.58
2018-05-02T22:04:34.762Z,72.50
2018-05-02T22:07:00.625Z,72.12
2018-05-02T22:09:26.453Z,73.30
2018-05-02T22:11:52.312Z,74.01
2018-05-02T22:14:18.153Z,73.99
2018-05-02T22:16:44.045Z,74.17
2018-05-02T22:19:09.903Z,73.49
2018-05-02T22:21:35.753Z,73.57
2018-05-02T22:24:01.588Z,72.16
2018-05-02T22:26:27.446Z,71.91
2018-05-02T22:28:53.287Z,71.40
2018-05-02T22:31:19.133Z,73.17
2018-05-02T22:33:44.986Z,73.79
2018-05-02T22:36:10.798Z,73.66
2018-05-02T22:38:36.640Z,72.89
2018-05-02T22:41:02.487Z,74.98
2018-05-02T22:43:28.554Z,74.54
2018-05-02T22:45:54.432Z,74.90
2018-05-02T22:48:20.284Z,75.48
2018-05-02T22:50:46.116Z,75.75
2018-05-02T22:53:12.005Z,76.38
2018-05-02T22:55:37.892Z,77.58
2018-05-02T22:58:03.760Z,78.22
2018-05-02T23:00:29.606Z,77.29
2018-05-02T23:02:55.472Z,76.86
2018-05-02T23:05:21.689Z,78.09
2018-05-02T23:07:47.594Z,78.35
2018-05-02T23:10:13.472Z,79.15
2018-05-02T23:12:39.325Z,79.66
2018-05-02T23:15:05.241Z,79.06
2018-05-02T23:17:31.131Z,79.43
2018-05-02T23:19:56.994Z,80.02
2018-05-02T23:22:22.837Z,80.31
2018-05-02T23:24:48.731Z,79.57
2018-05-02T23:27:14.573Z,79.95
2018-05-02T23:29:40.407Z,80.76
2018-05-02T23:32:06.253Z,80.73
2018-05-02T23:34:32.114Z,79.92
2018-05-02T23:36:57.974Z,80.40
2018-05-02T23:39:23.849Z,80.26
2018-05-02T23:41:49.673Z,78.70
2018-05-02T23:44:15.501Z,77.72
2018-05-02T23:46:41.362Z,77.33
2018-05-02T23:49:07.224Z,76.78
2018-05-02T23:51:33.096Z,76.71
2018-05-02T23:53:58.944Z,78.21
2018-05-02T23:56:24.778Z,79.38
2018-05-02T23:58:50.644Z,79.91
